Nearby METAR Reports

 

KISP - Islip, New York, USA
Distance from station: SW 4mi, 6km
Updated: Sat, 07/11/2020 7:56 pm EDT
Light drizzle, Fog, Overcast
Light drizzle, Fog, Overcast
 Wind from S
Wind: S 14 mph , 22 km/h, Gust: 22 mph , 35 km/h
Temperature: 73°F , 23°C
Dew Point: 73°F , 23°C
Humidity: 100%
Barometer: 29.68 inHg , 1005.1 hPa
Summary: Light drizzle, Fog
Clouds: Overcast
Visibility: 1/4 mile , 0.4 km
Cloud details: Overcast 200 ft
2020/07/11 23:56 KISP 112356Z 19012G19KT 1/4SM R06/2400V4000FT -DZ FG OVC002 23/23 A2968 RMK AO2 DZB45 SLP051 P0000 60000 T02280228 10256 20228 53002 $
KHWV - Shirley, New York, USA
Distance from station: E 10mi, 16km
Updated: Sat, 07/11/2020 8:15 pm EDT
Mist, Overcast
Mist, Overcast
 Wind from S
Wind: S 13 mph , 20 km/h
Temperature: 73°F , 23°C
Dew Point: 72°F , 22°C
Humidity: 94%
Barometer: 29.69 inHg , 1005.4 hPa
Summary: Mist
Clouds: Overcast
Visibility: 1 3/4 miles , 2.8 km
Cloud details: Overcast 200 ft
2020/07/12 00:15 KHWV 120015Z AUTO 19011KT 1 3/4SM BR OVC002 23/22 A2969 RMK AO2 T02330217
 
KFRG - Farmingdale, New York, USA
Distance from station: WSW 20mi, 33km
Updated: Sat, 07/11/2020 7:53 pm EDT
Overcast
Overcast
 Wind from SSW
Wind: SSW 15 mph , 24 km/h
Temperature: 75°F , 24°C
Dew Point: 72°F , 22°C
Humidity: 89%
Barometer: 29.68 inHg , 1005.1 hPa
Clouds: Overcast
Visibility: 10 miles , 16 km
Cloud details: Overcast 400 ft
2020/07/11 23:53 KFRG 112353Z AUTO 20013KT 10SM OVC004 24/22 A2968 RMK AO2 SLP049 T02440222 10283 20244 53002
KBDR - Bridgeport, Connecticut, USA
Distance from station: N 23mi, 37km
Updated: Sat, 07/11/2020 7:52 pm EDT
Overcast
Overcast
 Wind from SSW
Wind: SSW 10 mph , 17 km/h
Temperature: 77°F , 25°C
Dew Point: 73°F , 23°C
Humidity: 89%
Barometer: 29.66 inHg , 1004.4 hPa
Clouds: Overcast
Visibility: 8 miles , 13 km
Cloud details: Overcast 600 ft
2020/07/11 23:52 KBDR 112352Z 20009KT 8SM OVC006 25/23 A2966 RMK AO2 LTG DSNT W SLP045 T02500228 10294 20250 55000
 
KFOK - Westhampton Beac, New York, USA
Distance from station: E 23mi, 37km
Updated: Sat, 07/11/2020 7:53 pm EDT
Overcast
Overcast
 Wind from S
Wind: S 13 mph , 20 km/h, Gust: 20 mph , 31 km/h
Temperature: 73°F , 23°C
Dew Point: 72°F , 22°C
Humidity: 94%
Barometer: 29.71 inHg , 1006.1 hPa
Clouds: Overcast
Visibility: 10 miles , 16 km
Cloud details: Overcast 300 ft
2020/07/11 23:53 KFOK 112353Z 19011G17KT 10SM OVC003 23/22 A2971 RMK AO2 SLP061 T02280222 10244 20228 55001
KHVN - New Haven/Tweed, Connecticut, USA
Distance from station: NNE 31mi, 50km
Updated: Sat, 07/11/2020 7:53 pm EDT
Overcast
Overcast
 Wind from S
Wind: S 6 mph , 9 km/h
Temperature: 77°F , 25°C
Dew Point: 73°F , 23°C
Humidity: 89%
Barometer: 29.68 inHg , 1005.1 hPa
Clouds: Overcast
Visibility: 8 miles , 13 km
Cloud details: Overcast 700 ft
2020/07/11 23:53 KHVN 112353Z 19005KT 8SM OVC007 25/23 A2968 RMK AO2 SLP049 T02500233 10294 20250 53001
 
KHPN - White Plains, New York, USA
Distance from station: WNW 37mi, 60km
Updated: Sat, 07/11/2020 7:56 pm EDT
Light drizzle, Mostly cloudy
Light drizzle, Mostly cloudy
 Wind from varies
Wind: varies 5 mph , 7 km/h
Temperature: 73°F , 23°C
Dew Point: 70°F , 21°C
Humidity: 89%
Barometer: 29.66 inHg , 1004.4 hPa
Summary: Light Drizzle
Clouds: Mostly cloudy
Visibility: 10 miles , 16 km
Cloud details: Few Clouds 1600 ft
Mostly cloudy 9000 ft
Mostly cloudy 11000 ft
2020/07/11 23:56 KHPN 112356Z VRB04KT 10SM -DZ FEW016 BKN090 BKN110 23/21 A2966 RMK AO2 LTG DSNT N AND NW RAB30E53DZB54 TSB24E53 SLP036 P0003 60003 T02330211 10278 20233 55001 $
KJFK - Nyc/Jfk Arpt, New York, USA
Distance from station: WSW 40mi, 64km
Updated: Sat, 07/11/2020 7:51 pm EDT
Light rain, Mist, Mostly cloudy
Light rain, Mist, Mostly cloudy
 Wind from S
Wind: S 16 mph , 26 km/h
Temperature: 75°F , 24°C
Dew Point: 73°F , 23°C
Humidity: 94%
Barometer: 29.66 inHg , 1004.4 hPa
Summary: Light rain, Mist
Clouds: Mostly cloudy
Visibility: 5 miles , 8 km
Cloud details: Partly cloudy 400 ft
Partly cloudy 1500 ft
Mostly cloudy 4000 ft
Mostly cloudy 15000 ft
2020/07/11 23:51 KJFK 112351Z 17014KT 5SM -RA BR SCT004 SCT015 BKN040 BKN150 24/23 A2966 RMK AO2 RAB29 TSB09E42 SLP045 P0000 60003 T02440233 10267 20233 53001
 
KDXR - Danbury, Connecticut, USA
Distance from station: NNW 42mi, 68km
Updated: Sat, 07/11/2020 8:06 pm EDT
Heavy thunderstorm, Rain, Mist, Overcast
Heavy thunderstorm, Rain, Mist, Overcast
 Wind from W
Wind: W 13 mph , 20 km/h
Temperature: 72°F , 22°C
Dew Point: 72°F , 22°C
Humidity: 100%
Barometer: 29.70 inHg , 1005.8 hPa
Summary: Heavy thunderstorm, Rain, Mist
Clouds: Overcast
Visibility: 3/4 mile , 1.2 km
Cloud details: Mostly cloudy 2600 ft
Overcast 7000 ft
2020/07/12 00:06 KDXR 120006Z 26011KT 3/4SM +TSRA BR BKN026 OVC070 22/22 A2970 RMK AO2 LTG DSNT SW AND W TSB06 PRESRR P0049 T02220217
KHTO - East Hampton, New York, USA
Distance from station: E 43mi, 69km
Updated: Sat, 07/11/2020 8:15 pm EDT
Overcast
Overcast
 Wind from S
Wind: S 9 mph , 15 km/h, Gust: 16 mph , 26 km/h
Temperature: 73°F , 23°C
Dew Point: 72°F , 22°C
Humidity: 94%
Barometer: 29.70 inHg , 1005.8 hPa
Clouds: Overcast
Visibility: 7 miles , 11 km
Cloud details: Overcast 400 ft
2020/07/12 00:15 KHTO 120015Z AUTO 19008G14KT 7SM OVC004 23/22 A2970 RMK AO2 T02250220
 
KOXC - Oxford/Waterbury, Connecticut, USA
Distance from station: N 43mi, 70km
Updated: Sat, 07/11/2020 7:51 pm EDT
Overcast
Overcast
 Wind from S
Wind: S 10 mph , 17 km/h, Gust: 21 mph , 33 km/h
Temperature: 75°F , 24°C
Dew Point: 72°F , 22°C
Humidity: 89%
Barometer: 29.69 inHg , 1005.4 hPa
Clouds: Overcast
Visibility: 10 miles , 16 km
Cloud details: Overcast 1200 ft
2020/07/11 23:51 KOXC 112351Z 18009G18KT 10SM OVC012 24/22 A2969 RMK AO2 LTG DSNT W AND NW SLP060 6//// T02390222 10283 20239 56002
KLGA - Nyc/La Guardia, New York, USA
Distance from station: W 44mi, 70km
Updated: Sat, 07/11/2020 7:51 pm EDT
Light rain, Mostly cloudy
Light rain, Mostly cloudy
 Wind from S
Wind: S 10 mph , 17 km/h
Temperature: 79°F , 26°C
Dew Point: 70°F , 21°C
Humidity: 74%
Barometer: 29.64 inHg , 1003.7 hPa
Summary: Light rain
Clouds: Mostly cloudy
Visibility: 10 miles , 16 km
Cloud details: Few Clouds 1500 ft
Partly cloudy 4500 ft
Mostly cloudy 10000 ft
Mostly cloudy 25000 ft
2020/07/11 23:51 KLGA 112351Z 19009KT 10SM -RA FEW015 SCT045CB BKN100 BKN250 26/21 A2964 RMK AO2 PK WND 23027/2306 WSHFT 2257 LTG DSNT N RAB11 TSE38 SLP036 CBMAM OHD MOV NE P0004 60004 T02610211 10300 20250 53000 $
 
KSNC - Chester, Connecticut, USA
Distance from station: NE 47mi, 76km
Updated: Sat, 07/11/2020 7:55 pm EDT
Mist, Overcast
Mist, Overcast
 Wind from S
Wind: S 8 mph , 13 km/h, Gust: 16 mph , 26 km/h
Temperature: 75°F , 24°C
Dew Point: 75°F , 24°C
Humidity: 100%
Barometer: 29.71 inHg , 1006.1 hPa
Summary: Mist
Clouds: Overcast
Visibility: 3 miles , 5 km
Cloud details: Overcast 100 ft
2020/07/11 23:55 KSNC 112355Z AUTO 19007G14KT 3SM BR OVC001 24/24 A2971 RMK AO2
KMMK - Meriden, Connecticut, USA
Distance from station: NNE 48mi, 77km
Updated: Sat, 07/11/2020 7:53 pm EDT
Overcast
Overcast
 Wind from S
Wind: S 14 mph , 22 km/h
Temperature: 75°F , 24°C
Dew Point: 72°F , 22°C
Humidity: 89%
Barometer: 29.67 inHg , 1004.7 hPa
Clouds: Overcast
Visibility: 10 miles , 16 km
Cloud details: Overcast 800 ft
2020/07/11 23:53 KMMK 112353Z AUTO 17012KT 10SM OVC008 24/22 A2967 RMK AO2 CIG 008V013 SLP044 T02440222 10294 20244 51003
 
KNYC - Nyc/Central Park, New York, USA
Distance from station: W 48mi, 77km
Updated: Sat, 07/11/2020 7:51 pm EDT
Mist, Partly cloudy
Mist, Partly cloudy
 Wind from SW
Wind: SW 3 mph , 6 km/h
Temperature: 73°F , 23°C
Dew Point: 72°F , 22°C
Humidity: 94%
Barometer: 29.67 inHg , 1004.7 hPa
Summary: Mist
Clouds: Partly cloudy
Visibility: 4 miles , 6 km
Cloud details: Few Clouds 4300 ft
Few Clouds 8000 ft
Partly cloudy 10000 ft
2020/07/11 23:51 KNYC 112351Z AUTO 23003KT 4SM BR FEW043 FEW080 SCT100 23/22 A2967 RMK AO2 RAB2255E46 SLP036 P0015 60024 T02330222 10283 20228 53003 $